sensor_id;sensor_type;location;lat;lon;timestamp;P1;durP1;ratioP1;P2;durP2;ratioP2
78589;SDS011;67888;50.228;7.828;2023-11-21T00:04:06;6.87;;;1.87;;
78589;SDS011;67888;50.228;7.828;2023-11-21T00:09:07;4.97;;;1.70;;
78589;SDS011;67888;50.228;7.828;2023-11-21T00:14:08;4.95;;;1.80;;
78589;SDS011;67888;50.228;7.828;2023-11-21T00:19:09;5.83;;;1.70;;
78589;SDS011;67888;50.228;7.828;2023-11-21T00:24:09;5.57;;;2.07;;
78589;SDS011;67888;50.228;7.828;2023-11-21T00:29:13;5.73;;;1.73;;
78589;SDS011;67888;50.228;7.828;2023-11-21T00:34:14;4.60;;;1.70;;
78589;SDS011;67888;50.228;7.828;2023-11-21T00:39:15;6.13;;;1.93;;
78589;SDS011;67888;50.228;7.828;2023-11-21T00:44:15;3.97;;;1.90;;
78589;SDS011;67888;50.228;7.828;2023-11-21T00:49:16;4.50;;;1.50;;
78589;SDS011;67888;50.228;7.828;2023-11-21T00:54:16;5.63;;;1.70;;
78589;SDS011;67888;50.228;7.828;2023-11-21T00:59:17;6.03;;;1.97;;
78589;SDS011;67888;50.228;7.828;2023-11-21T01:04:17;4.97;;;1.73;;
78589;SDS011;67888;50.228;7.828;2023-11-21T01:09:18;4.33;;;1.67;;
78589;SDS011;67888;50.228;7.828;2023-11-21T01:14:18;5.32;;;1.58;;
78589;SDS011;67888;50.228;7.828;2023-11-21T01:19:19;6.30;;;1.60;;
78589;SDS011;67888;50.228;7.828;2023-11-21T01:24:19;5.27;;;1.73;;
78589;SDS011;67888;50.228;7.828;2023-11-21T01:29:20;6.20;;;1.63;;
78589;SDS011;67888;50.228;7.828;2023-11-21T01:34:21;6.47;;;1.80;;
78589;SDS011;67888;50.228;7.828;2023-11-21T01:39:21;5.93;;;2.33;;
78589;SDS011;67888;50.228;7.828;2023-11-21T01:44:24;6.60;;;2.03;;
78589;SDS011;67888;50.228;7.828;2023-11-21T01:49:24;5.82;;;1.90;;
78589;SDS011;67888;50.228;7.828;2023-11-21T01:54:25;6.73;;;2.10;;
78589;SDS011;67888;50.228;7.828;2023-11-21T01:59:27;5.95;;;2.38;;
78589;SDS011;67888;50.228;7.828;2023-11-21T02:04:34;6.03;;;2.38;;
78589;SDS011;67888;50.228;7.828;2023-11-21T02:09:36;5.57;;;2.13;;
78589;SDS011;67888;50.228;7.828;2023-11-21T02:14:42;8.50;;;2.65;;
78589;SDS011;67888;50.228;7.828;2023-11-21T02:19:43;7.00;;;2.95;;
78589;SDS011;67888;50.228;7.828;2023-11-21T02:24:45;7.47;;;2.20;;
78589;SDS011;67888;50.228;7.828;2023-11-21T02:29:47;6.55;;;2.78;;
78589;SDS011;67888;50.228;7.828;2023-11-21T02:34:47;8.70;;;3.00;;
78589;SDS011;67888;50.228;7.828;2023-11-21T02:39:48;10.03;;;3.20;;
78589;SDS011;67888;50.228;7.828;2023-11-21T02:44:49;8.03;;;3.07;;
78589;SDS011;67888;50.228;7.828;2023-11-21T02:49:49;8.20;;;3.73;;
78589;SDS011;67888;50.228;7.828;2023-11-21T02:54:52;8.90;;;3.55;;
78589;SDS011;67888;50.228;7.828;2023-11-21T02:59:53;9.05;;;4.10;;
78589;SDS011;67888;50.228;7.828;2023-11-21T03:04:53;8.67;;;4.00;;
78589;SDS011;67888;50.228;7.828;2023-11-21T03:09:53;7.80;;;3.73;;
78589;SDS011;67888;50.228;7.828;2023-11-21T03:14:54;8.07;;;3.33;;
78589;SDS011;67888;50.228;7.828;2023-11-21T03:19:54;8.53;;;3.10;;
78589;SDS011;67888;50.228;7.828;2023-11-21T03:24:55;8.67;;;3.23;;
78589;SDS011;67888;50.228;7.828;2023-11-21T03:29:56;7.68;;;3.00;;
78589;SDS011;67888;50.228;7.828;2023-11-21T03:34:57;8.13;;;3.67;;
78589;SDS011;67888;50.228;7.828;2023-11-21T03:39:58;7.25;;;3.00;;
78589;SDS011;67888;50.228;7.828;2023-11-21T03:44:59;8.57;;;3.03;;
78589;SDS011;67888;50.228;7.828;2023-11-21T03:49:59;8.77;;;3.07;;
78589;SDS011;67888;50.228;7.828;2023-11-21T03:54:59;8.33;;;3.10;;
78589;SDS011;67888;50.228;7.828;2023-11-21T04:00:00;8.45;;;3.88;;
78589;SDS011;67888;50.228;7.828;2023-11-21T04:05:01;8.57;;;3.73;;
78589;SDS011;67888;50.228;7.828;2023-11-21T04:10:02;7.93;;;3.27;;
78589;SDS011;67888;50.228;7.828;2023-11-21T04:15:03;7.05;;;2.83;;
78589;SDS011;67888;50.228;7.828;2023-11-21T04:20:05;7.90;;;2.97;;
78589;SDS011;67888;50.228;7.828;2023-11-21T04:25:10;6.80;;;2.58;;
78589;SDS011;67888;50.228;7.828;2023-11-21T04:30:12;8.80;;;2.50;;
78589;SDS011;67888;50.228;7.828;2023-11-21T04:35:13;7.77;;;2.77;;
78589;SDS011;67888;50.228;7.828;2023-11-21T04:40:13;7.97;;;3.50;;
78589;SDS011;67888;50.228;7.828;2023-11-21T04:45:14;7.80;;;3.17;;
78589;SDS011;67888;50.228;7.828;2023-11-21T04:50:18;10.50;;;3.33;;
78589;SDS011;67888;50.228;7.828;2023-11-21T04:55:20;8.30;;;3.43;;
78589;SDS011;67888;50.228;7.828;2023-11-21T05:00:21;11.27;;;4.13;;
78589;SDS011;67888;50.228;7.828;2023-11-21T05:05:21;7.53;;;3.03;;
78589;SDS011;67888;50.228;7.828;2023-11-21T05:10:22;9.60;;;3.60;;
78589;SDS011;67888;50.228;7.828;2023-11-21T05:15:23;8.40;;;3.58;;
78589;SDS011;67888;50.228;7.828;2023-11-21T05:20:23;8.17;;;3.30;;
78589;SDS011;67888;50.228;7.828;2023-11-21T05:25:25;9.97;;;3.40;;
78589;SDS011;67888;50.228;7.828;2023-11-21T05:30:40;8.87;;;3.03;;
78589;SDS011;67888;50.228;7.828;2023-11-21T05:35:40;7.32;;;2.83;;
78589;SDS011;67888;50.228;7.828;2023-11-21T05:40:41;7.03;;;2.77;;
78589;SDS011;67888;50.228;7.828;2023-11-21T05:45:41;7.17;;;2.50;;
78589;SDS011;67888;50.228;7.828;2023-11-21T05:50:42;7.07;;;2.50;;
78589;SDS011;67888;50.228;7.828;2023-11-21T05:55:43;6.10;;;2.40;;
78589;SDS011;67888;50.228;7.828;2023-11-21T06:00:43;6.90;;;2.20;;
78589;SDS011;67888;50.228;7.828;2023-11-21T06:05:44;7.30;;;2.40;;
78589;SDS011;67888;50.228;7.828;2023-11-21T06:10:44;7.57;;;2.40;;
78589;SDS011;67888;50.228;7.828;2023-11-21T06:15:45;5.57;;;2.10;;
78589;SDS011;67888;50.228;7.828;2023-11-21T06:20:46;6.55;;;2.15;;
78589;SDS011;67888;50.228;7.828;2023-11-21T06:25:46;6.17;;;1.90;;
78589;SDS011;67888;50.228;7.828;2023-11-21T06:30:47;5.77;;;2.00;;
78589;SDS011;67888;50.228;7.828;2023-11-21T06:35:49;5.63;;;2.00;;
78589;SDS011;67888;50.228;7.828;2023-11-21T06:40:50;6.22;;;2.17;;
78589;SDS011;67888;50.228;7.828;2023-11-21T06:45:50;5.33;;;2.17;;
78589;SDS011;67888;50.228;7.828;2023-11-21T06:50:51;6.50;;;2.40;;
78589;SDS011;67888;50.228;7.828;2023-11-21T06:55:52;5.00;;;2.03;;
78589;SDS011;67888;50.228;7.828;2023-11-21T07:00:52;5.17;;;2.27;;
78589;SDS011;67888;50.228;7.828;2023-11-21T07:05:53;6.40;;;2.03;;
78589;SDS011;67888;50.228;7.828;2023-11-21T07:10:53;7.50;;;2.17;;
78589;SDS011;67888;50.228;7.828;2023-11-21T07:15:54;4.93;;;1.80;;
78589;SDS011;67888;50.228;7.828;2023-11-21T07:20:54;5.55;;;2.30;;
78589;SDS011;67888;50.228;7.828;2023-11-21T07:25:55;6.37;;;2.00;;
78589;SDS011;67888;50.228;7.828;2023-11-21T07:30:55;5.60;;;2.00;;
78589;SDS011;67888;50.228;7.828;2023-11-21T07:35:56;5.77;;;2.43;;
78589;SDS011;67888;50.228;7.828;2023-11-21T07:40:56;6.60;;;2.83;;
78589;SDS011;67888;50.228;7.828;2023-11-21T07:45:57;6.77;;;2.30;;
78589;SDS011;67888;50.228;7.828;2023-11-21T07:50:57;5.20;;;2.43;;
78589;SDS011;67888;50.228;7.828;2023-11-21T07:56:02;6.40;;;2.70;;
78589;SDS011;67888;50.228;7.828;2023-11-21T08:01:04;8.65;;;4.20;;
78589;SDS011;67888;50.228;7.828;2023-11-21T08:06:05;7.80;;;2.93;;
78589;SDS011;67888;50.228;7.828;2023-11-21T08:11:05;7.37;;;3.30;;
78589;SDS011;67888;50.228;7.828;2023-11-21T08:16:10;8.55;;;3.30;;
78589;SDS011;67888;50.228;7.828;2023-11-21T08:21:12;7.40;;;3.17;;
78589;SDS011;67888;50.228;7.828;2023-11-21T08:26:15;10.25;;;3.95;;
78589;SDS011;67888;50.228;7.828;2023-11-21T08:31:16;8.20;;;3.60;;
78589;SDS011;67888;50.228;7.828;2023-11-21T08:36:17;8.65;;;3.83;;
78589;SDS011;67888;50.228;7.828;2023-11-21T08:41:18;11.57;;;4.73;;
78589;SDS011;67888;50.228;7.828;2023-11-21T08:46:21;11.38;;;4.07;;
78589;SDS011;67888;50.228;7.828;2023-11-21T08:51:21;12.00;;;4.57;;
78589;SDS011;67888;50.228;7.828;2023-11-21T08:56:26;10.37;;;4.77;;
78589;SDS011;67888;50.228;7.828;2023-11-21T09:01:27;11.75;;;4.70;;
78589;SDS011;67888;50.228;7.828;2023-11-21T09:06:29;11.30;;;5.60;;
78589;SDS011;67888;50.228;7.828;2023-11-21T09:11:29;12.70;;;5.72;;
78589;SDS011;67888;50.228;7.828;2023-11-21T09:16:33;13.93;;;5.67;;
78589;SDS011;67888;50.228;7.828;2023-11-21T09:21:34;13.43;;;6.07;;
78589;SDS011;67888;50.228;7.828;2023-11-21T09:26:34;13.80;;;5.57;;
78589;SDS011;67888;50.228;7.828;2023-11-21T09:31:35;13.23;;;5.90;;
78589;SDS011;67888;50.228;7.828;2023-11-21T09:36:36;13.43;;;6.07;;
78589;SDS011;67888;50.228;7.828;2023-11-21T09:46:47;13.87;;;6.60;;
78589;SDS011;67888;50.228;7.828;2023-11-21T09:51:50;14.02;;;5.70;;
78589;SDS011;67888;50.228;7.828;2023-11-21T09:56:54;13.10;;;5.72;;
78589;SDS011;67888;50.228;7.828;2023-11-21T10:01:56;12.43;;;5.80;;
78589;SDS011;67888;50.228;7.828;2023-11-21T10:06:58;12.77;;;5.97;;
78589;SDS011;67888;50.228;7.828;2023-11-21T10:11:59;13.13;;;6.10;;
78589;SDS011;67888;50.228;7.828;2023-11-21T10:17:00;12.70;;;5.70;;
78589;SDS011;67888;50.228;7.828;2023-11-21T10:22:02;14.27;;;6.57;;
78589;SDS011;67888;50.228;7.828;2023-11-21T10:27:04;15.27;;;6.88;;
78589;SDS011;67888;50.228;7.828;2023-11-21T10:32:04;13.27;;;6.13;;
78589;SDS011;67888;50.228;7.828;2023-11-21T10:37:12;12.45;;;5.88;;
78589;SDS011;67888;50.228;7.828;2023-11-21T10:42:12;15.77;;;7.00;;
78589;SDS011;67888;50.228;7.828;2023-11-21T10:47:13;14.20;;;6.82;;
78589;SDS011;67888;50.228;7.828;2023-11-21T10:52:15;14.90;;;6.63;;
78589;SDS011;67888;50.228;7.828;2023-11-21T10:57:18;14.73;;;7.18;;
78589;SDS011;67888;50.228;7.828;2023-11-21T11:02:25;15.00;;;6.88;;
78589;SDS011;67888;50.228;7.828;2023-11-21T11:07:32;15.47;;;7.27;;
78589;SDS011;67888;50.228;7.828;2023-11-21T11:12:35;20.98;;;8.60;;
78589;SDS011;67888;50.228;7.828;2023-11-21T11:17:36;18.17;;;8.73;;
78589;SDS011;67888;50.228;7.828;2023-11-21T11:22:44;23.85;;;8.05;;
78589;SDS011;67888;50.228;7.828;2023-11-21T11:38:01;15.47;;;7.50;;
78589;SDS011;67888;50.228;7.828;2023-11-21T11:43:01;15.97;;;7.63;;
78589;SDS011;67888;50.228;7.828;2023-11-21T11:48:05;17.80;;;7.82;;
78589;SDS011;67888;50.228;7.828;2023-11-21T11:53:12;14.53;;;7.07;;
78589;SDS011;67888;50.228;7.828;2023-11-21T11:58:14;15.10;;;6.85;;
78589;SDS011;67888;50.228;7.828;2023-11-21T12:03:14;15.90;;;6.30;;
78589;SDS011;67888;50.228;7.828;2023-11-21T12:08:18;14.97;;;6.43;;
78589;SDS011;67888;50.228;7.828;2023-11-21T12:13:21;16.97;;;7.00;;
78589;SDS011;67888;50.228;7.828;2023-11-21T12:18:23;14.00;;;5.85;;
78589;SDS011;67888;50.228;7.828;2023-11-21T12:23:26;16.13;;;6.68;;
78589;SDS011;67888;50.228;7.828;2023-11-21T12:28:27;17.10;;;7.30;;
78589;SDS011;67888;50.228;7.828;2023-11-21T12:33:28;13.07;;;5.82;;
78589;SDS011;67888;50.228;7.828;2023-11-21T12:38:35;14.43;;;5.07;;
78589;SDS011;67888;50.228;7.828;2023-11-21T12:43:35;12.38;;;5.22;;
78589;SDS011;67888;50.228;7.828;2023-11-21T12:48:41;11.60;;;4.50;;
78589;SDS011;67888;50.228;7.828;2023-11-21T12:53:45;10.93;;;4.73;;
78589;SDS011;67888;50.228;7.828;2023-11-21T12:58:48;13.23;;;5.10;;
78589;SDS011;67888;50.228;7.828;2023-11-21T13:03:51;10.80;;;5.03;;
78589;SDS011;67888;50.228;7.828;2023-11-21T13:08:53;13.13;;;5.20;;
78589;SDS011;67888;50.228;7.828;2023-11-21T13:13:57;18.10;;;6.30;;
78589;SDS011;67888;50.228;7.828;2023-11-21T13:18:57;13.53;;;6.27;;
78589;SDS011;67888;50.228;7.828;2023-11-21T13:23:58;15.73;;;6.50;;
78589;SDS011;67888;50.228;7.828;2023-11-21T13:28:58;12.83;;;5.87;;
78589;SDS011;67888;50.228;7.828;2023-11-21T13:33:59;15.20;;;6.50;;
78589;SDS011;67888;50.228;7.828;2023-11-21T13:39:05;13.52;;;5.95;;
78589;SDS011;67888;50.228;7.828;2023-11-21T13:44:07;13.73;;;6.45;;
78589;SDS011;67888;50.228;7.828;2023-11-21T13:49:37;15.37;;;7.13;;
78589;SDS011;67888;50.228;7.828;2023-11-21T13:54:41;16.90;;;6.60;;
78589;SDS011;67888;50.228;7.828;2023-11-21T13:59:41;15.27;;;6.40;;
78589;SDS011;67888;50.228;7.828;2023-11-21T14:04:44;17.38;;;6.90;;
78589;SDS011;67888;50.228;7.828;2023-11-21T14:10:07;14.40;;;6.13;;
78589;SDS011;67888;50.228;7.828;2023-11-21T14:15:13;14.53;;;6.30;;
78589;SDS011;67888;50.228;7.828;2023-11-21T14:20:18;17.52;;;6.93;;
78589;SDS011;67888;50.228;7.828;2023-11-21T14:25:21;15.75;;;7.28;;
78589;SDS011;67888;50.228;7.828;2023-11-21T14:30:22;17.47;;;7.33;;
78589;SDS011;67888;50.228;7.828;2023-11-21T14:35:23;18.47;;;7.47;;
78589;SDS011;67888;50.228;7.828;2023-11-21T14:40:24;17.03;;;7.13;;
78589;SDS011;67888;50.228;7.828;2023-11-21T14:45:24;15.67;;;7.93;;
78589;SDS011;67888;50.228;7.828;2023-11-21T14:50:26;18.25;;;8.35;;
78589;SDS011;67888;50.228;7.828;2023-11-21T14:55:42;17.35;;;7.30;;
78589;SDS011;67888;50.228;7.828;2023-11-21T15:00:57;19.07;;;8.27;;
78589;SDS011;67888;50.228;7.828;2023-11-21T15:11:00;19.02;;;8.23;;
78589;SDS011;67888;50.228;7.828;2023-11-21T15:16:02;16.70;;;7.00;;
78589;SDS011;67888;50.228;7.828;2023-11-21T15:21:16;18.13;;;7.23;;
78589;SDS011;67888;50.228;7.828;2023-11-21T15:26:16;21.27;;;8.40;;
78589;SDS011;67888;50.228;7.828;2023-11-21T15:31:17;19.53;;;8.87;;
78589;SDS011;67888;50.228;7.828;2023-11-21T15:36:22;26.58;;;8.88;;
78589;SDS011;67888;50.228;7.828;2023-11-21T15:41:23;19.97;;;8.07;;
78589;SDS011;67888;50.228;7.828;2023-11-21T15:46:24;22.02;;;8.88;;
78589;SDS011;67888;50.228;7.828;2023-11-21T15:51:25;23.73;;;9.27;;
78589;SDS011;67888;50.228;7.828;2023-11-21T15:56:25;25.30;;;9.00;;
78589;SDS011;67888;50.228;7.828;2023-11-21T16:01:26;21.57;;;9.07;;
78589;SDS011;67888;50.228;7.828;2023-11-21T16:06:27;22.52;;;8.27;;
78589;SDS011;67888;50.228;7.828;2023-11-21T16:11:30;24.17;;;9.00;;
78589;SDS011;67888;50.228;7.828;2023-11-21T16:16:30;20.42;;;8.93;;
78589;SDS011;67888;50.228;7.828;2023-11-21T16:21:31;23.93;;;9.20;;
78589;SDS011;67888;50.228;7.828;2023-11-21T16:26:31;18.37;;;8.30;;
78589;SDS011;67888;50.228;7.828;2023-11-21T16:31:32;21.30;;;9.20;;
78589;SDS011;67888;50.228;7.828;2023-11-21T16:36:34;24.33;;;9.82;;
78589;SDS011;67888;50.228;7.828;2023-11-21T16:41:34;21.47;;;8.63;;
78589;SDS011;67888;50.228;7.828;2023-11-21T16:46:35;18.88;;;8.95;;
78589;SDS011;67888;50.228;7.828;2023-11-21T16:51:36;21.97;;;9.27;;
78589;SDS011;67888;50.228;7.828;2023-11-21T16:56:37;21.70;;;8.67;;
78589;SDS011;67888;50.228;7.828;2023-11-21T17:01:38;22.15;;;8.95;;
78589;SDS011;67888;50.228;7.828;2023-11-21T17:06:42;21.90;;;9.23;;
78589;SDS011;67888;50.228;7.828;2023-11-21T17:11:43;31.38;;;9.05;;
78589;SDS011;67888;50.228;7.828;2023-11-21T17:16:46;22.65;;;9.30;;
78589;SDS011;67888;50.228;7.828;2023-11-21T17:21:49;23.00;;;8.93;;
78589;SDS011;67888;50.228;7.828;2023-11-21T17:26:49;23.60;;;8.90;;
78589;SDS011;67888;50.228;7.828;2023-11-21T17:31:50;21.90;;;8.80;;
78589;SDS011;67888;50.228;7.828;2023-11-21T17:36:50;23.57;;;9.37;;
78589;SDS011;67888;50.228;7.828;2023-11-21T17:41:51;22.40;;;9.23;;
78589;SDS011;67888;50.228;7.828;2023-11-21T17:46:51;22.70;;;8.97;;
78589;SDS011;67888;50.228;7.828;2023-11-21T17:51:52;28.65;;;11.52;;
78589;SDS011;67888;50.228;7.828;2023-11-21T17:56:53;23.50;;;10.70;;
78589;SDS011;67888;50.228;7.828;2023-11-21T18:01:54;21.88;;;9.43;;
78589;SDS011;67888;50.228;7.828;2023-11-21T18:06:55;23.70;;;9.03;;
78589;SDS011;67888;50.228;7.828;2023-11-21T18:11:58;22.17;;;9.38;;
78589;SDS011;67888;50.228;7.828;2023-11-21T18:16:59;22.07;;;7.97;;
78589;SDS011;67888;50.228;7.828;2023-11-21T18:21:59;17.10;;;6.93;;
78589;SDS011;67888;50.228;7.828;2023-11-21T18:27:00;18.00;;;7.33;;
78589;SDS011;67888;50.228;7.828;2023-11-21T18:32:00;17.90;;;7.27;;
78589;SDS011;67888;50.228;7.828;2023-11-21T18:37:01;17.10;;;7.90;;
78589;SDS011;67888;50.228;7.828;2023-11-21T18:42:01;18.57;;;8.50;;
78589;SDS011;67888;50.228;7.828;2023-11-21T18:47:02;19.35;;;9.32;;
78589;SDS011;67888;50.228;7.828;2023-11-21T18:52:03;17.87;;;7.47;;
78589;SDS011;67888;50.228;7.828;2023-11-21T18:57:04;16.88;;;6.45;;
78589;SDS011;67888;50.228;7.828;2023-11-21T19:02:05;14.00;;;6.83;;
78589;SDS011;67888;50.228;7.828;2023-11-21T19:07:08;14.48;;;6.35;;
78589;SDS011;67888;50.228;7.828;2023-11-21T19:12:09;13.87;;;6.33;;
78589;SDS011;67888;50.228;7.828;2023-11-21T19:17:13;15.63;;;6.55;;
78589;SDS011;67888;50.228;7.828;2023-11-21T19:22:13;14.77;;;6.27;;
78589;SDS011;67888;50.228;7.828;2023-11-21T19:27:14;12.73;;;5.07;;
78589;SDS011;67888;50.228;7.828;2023-11-21T19:32:14;13.80;;;4.70;;
78589;SDS011;67888;50.228;7.828;2023-11-21T19:37:15;6.73;;;2.23;;
78589;SDS011;67888;50.228;7.828;2023-11-21T19:42:15;4.07;;;1.50;;
78589;SDS011;67888;50.228;7.828;2023-11-21T19:47:17;4.80;;;2.00;;
78589;SDS011;67888;50.228;7.828;2023-11-21T19:52:17;5.83;;;2.30;;
78589;SDS011;67888;50.228;7.828;2023-11-21T19:57:18;6.53;;;3.07;;
78589;SDS011;67888;50.228;7.828;2023-11-21T20:02:19;7.33;;;3.47;;
78589;SDS011;67888;50.228;7.828;2023-11-21T20:07:19;8.80;;;3.90;;
78589;SDS011;67888;50.228;7.828;2023-11-21T20:12:21;8.57;;;3.20;;
78589;SDS011;67888;50.228;7.828;2023-11-21T20:17:22;9.68;;;3.92;;
78589;SDS011;67888;50.228;7.828;2023-11-21T20:22:24;10.17;;;4.27;;
78589;SDS011;67888;50.228;7.828;2023-11-21T20:27:25;9.98;;;5.00;;
78589;SDS011;67888;50.228;7.828;2023-11-21T20:32:26;9.18;;;4.03;;
78589;SDS011;67888;50.228;7.828;2023-11-21T20:37:27;11.57;;;4.67;;
78589;SDS011;67888;50.228;7.828;2023-11-21T20:42:27;27.20;;;12.60;;
78589;SDS011;67888;50.228;7.828;2023-11-21T20:47:31;12.20;;;5.97;;
78589;SDS011;67888;50.228;7.828;2023-11-21T20:52:33;10.25;;;4.45;;
78589;SDS011;67888;50.228;7.828;2023-11-21T20:57:34;10.90;;;4.93;;
78589;SDS011;67888;50.228;7.828;2023-11-21T21:02:35;9.35;;;4.13;;
78589;SDS011;67888;50.228;7.828;2023-11-21T21:07:36;9.60;;;4.13;;
78589;SDS011;67888;50.228;7.828;2023-11-21T21:12:36;9.70;;;4.10;;
78589;SDS011;67888;50.228;7.828;2023-11-21T21:17:38;10.25;;;4.85;;
78589;SDS011;67888;50.228;7.828;2023-11-21T21:22:42;8.87;;;4.13;;
78589;SDS011;67888;50.228;7.828;2023-11-21T21:27:42;7.87;;;3.40;;
78589;SDS011;67888;50.228;7.828;2023-11-21T21:32:43;8.77;;;3.78;;
78589;SDS011;67888;50.228;7.828;2023-11-21T21:37:46;11.87;;;4.80;;
78589;SDS011;67888;50.228;7.828;2023-11-21T21:42:46;18.77;;;8.27;;
78589;SDS011;67888;50.228;7.828;2023-11-21T21:47:48;10.18;;;4.40;;
78589;SDS011;67888;50.228;7.828;2023-11-21T21:52:48;9.40;;;3.97;;
78589;SDS011;67888;50.228;7.828;2023-11-21T21:57:49;16.80;;;9.63;;
78589;SDS011;67888;50.228;7.828;2023-11-21T22:02:50;10.15;;;4.88;;
78589;SDS011;67888;50.228;7.828;2023-11-21T22:07:51;7.50;;;3.15;;
78589;SDS011;67888;50.228;7.828;2023-11-21T22:12:52;9.23;;;4.20;;
78589;SDS011;67888;50.228;7.828;2023-11-21T22:17:53;7.53;;;2.95;;
78589;SDS011;67888;50.228;7.828;2023-11-21T22:22:54;8.20;;;3.53;;
78589;SDS011;67888;50.228;7.828;2023-11-21T22:27:55;7.38;;;3.30;;
78589;SDS011;67888;50.228;7.828;2023-11-21T22:32:56;8.17;;;3.43;;
78589;SDS011;67888;50.228;7.828;2023-11-21T22:38:00;6.20;;;2.55;;
78589;SDS011;67888;50.228;7.828;2023-11-21T22:43:01;6.27;;;2.20;;
78589;SDS011;67888;50.228;7.828;2023-11-21T22:48:01;6.25;;;2.47;;
78589;SDS011;67888;50.228;7.828;2023-11-21T22:53:02;5.82;;;2.10;;
78589;SDS011;67888;50.228;7.828;2023-11-21T22:58:03;6.43;;;2.47;;
78589;SDS011;67888;50.228;7.828;2023-11-21T23:03:04;6.43;;;2.78;;
78589;SDS011;67888;50.228;7.828;2023-11-21T23:08:06;6.63;;;2.37;;
78589;SDS011;67888;50.228;7.828;2023-11-21T23:13:09;5.55;;;2.53;;
78589;SDS011;67888;50.228;7.828;2023-11-21T23:18:10;5.82;;;2.40;;
78589;SDS011;67888;50.228;7.828;2023-11-21T23:23:11;8.43;;;2.50;;
78589;SDS011;67888;50.228;7.828;2023-11-21T23:28:12;6.20;;;2.38;;
78589;SDS011;67888;50.228;7.828;2023-11-21T23:33:13;7.67;;;2.70;;
78589;SDS011;67888;50.228;7.828;2023-11-21T23:38:14;6.00;;;2.23;;
78589;SDS011;67888;50.228;7.828;2023-11-21T23:43:16;7.00;;;2.78;;
78589;SDS011;67888;50.228;7.828;2023-11-21T23:48:19;6.65;;;2.47;;
78589;SDS011;67888;50.228;7.828;2023-11-21T23:53:21;6.03;;;2.37;;
78589;SDS011;67888;50.228;7.828;2023-11-21T23:58:22;5.85;;;2.30;;
